createdAt,value
2017-12-16T00:00:56.867Z,77.3
2017-12-16T00:10:56.582Z,71.5
2017-12-16T00:20:57.465Z,74.5
2017-12-16T00:30:57.353Z,70.2
2017-12-16T00:40:57.349Z,65.2
2017-12-16T00:50:57.569Z,58.7
2017-12-16T01:00:57.490Z,60.5
2017-12-16T01:10:57.697Z,67.5
2017-12-16T01:20:56.529Z,69.9
2017-12-16T01:30:57.459Z,68.2
2017-12-16T01:40:57.370Z,70.1
2017-12-16T01:50:57.077Z,65.8
2017-12-16T02:00:56.765Z,64.7
2017-12-16T02:10:56.832Z,65.2
2017-12-16T02:20:56.852Z,63.6
2017-12-16T02:30:56.886Z,54.5
2017-12-16T02:40:56.602Z,54.4
2017-12-16T02:50:57.324Z,47.5
2017-12-16T03:00:57.114Z,49.8
2017-12-16T03:10:56.769Z,52.7
2017-12-16T03:20:56.816Z,44.4
2017-12-16T03:30:56.768Z,34.3
2017-12-16T03:40:56.681Z,43.2
2017-12-16T03:50:57.363Z,70.3
2017-12-16T04:00:57.462Z,61.0
2017-12-16T04:10:57.690Z,55.4
2017-12-16T04:20:56.824Z,62.3
2017-12-16T04:30:56.655Z,38.1
2017-12-16T04:40:57.508Z,44.4
2017-12-16T04:50:57.897Z,32.8
2017-12-16T05:00:57.124Z,34.8
2017-12-16T05:10:56.815Z,40.8
2017-12-16T05:20:56.635Z,37.2
2017-12-16T05:30:57.113Z,36.4
2017-12-16T05:40:57.174Z,61.5
2017-12-16T05:50:57.379Z,63.8
2017-12-16T06:00:57.222Z,58.6
2017-12-16T06:10:57.144Z,62.0
2017-12-16T06:20:57.180Z,73.9
2017-12-16T06:30:56.872Z,67.0
2017-12-16T06:40:56.534Z,69.3
2017-12-16T06:50:57.387Z,60.9
2017-12-16T07:00:57.066Z,61.3
2017-12-16T07:10:57.118Z,54.8
2017-12-16T07:20:56.913Z,51.7
2017-12-16T07:30:56.985Z,51.9
2017-12-16T07:40:57.083Z,52.8
2017-12-16T07:50:57.293Z,47.0
2017-12-16T08:00:57.253Z,50.9
2017-12-16T08:10:57.034Z,50.7
2017-12-16T08:20:56.827Z,52.6
2017-12-16T08:30:56.625Z,67.7
2017-12-16T08:40:57.578Z,59.4
2017-12-16T08:50:57.507Z,60.2
2017-12-16T09:00:57.168Z,53.1
2017-12-16T09:10:56.854Z,47.3
2017-12-16T09:20:57.052Z,55.4
2017-12-16T09:30:56.744Z,59.4
2017-12-16T09:40:57.662Z,63.6
2017-12-16T09:50:57.353Z,54.9
2017-12-16T10:00:57.139Z,54.5
2017-12-16T10:10:56.936Z,53.9
2017-12-16T10:20:57.280Z,51.3
2017-12-16T10:30:57.311Z,47.4
2017-12-16T10:40:57.051Z,52.3
2017-12-16T10:50:57.382Z,52.7
2017-12-16T11:00:57.131Z,50.7
2017-12-16T11:10:57.038Z,48.8
2017-12-16T11:20:57.077Z,44.1
2017-12-16T11:30:56.808Z,43.7
2017-12-16T11:40:56.813Z,33.4
2017-12-16T11:50:56.854Z,34.4
2017-12-16T12:00:56.935Z,40.2
2017-12-16T12:10:57.066Z,39.0
2017-12-16T12:20:57.684Z,47.6
2017-12-16T12:30:58.477Z,64.4
2017-12-16T12:40:59.507Z,79.8
2017-12-16T12:50:59.967Z,68.9
2017-12-16T13:00:56.824Z,72.6
2017-12-16T13:10:56.812Z,72.0
2017-12-16T13:20:57.100Z,75.3
2017-12-16T13:30:56.880Z,75.7
2017-12-16T13:40:56.880Z,72.4
2017-12-16T13:50:56.691Z,82.7
2017-12-16T14:00:57.802Z,79.4
2017-12-16T14:10:56.899Z,76.5
2017-12-16T14:20:56.729Z,69.8
2017-12-16T14:30:57.976Z,63.8
2017-12-16T14:40:56.646Z,55.2
2017-12-16T14:50:58.182Z,47.7
2017-12-16T15:00:57.439Z,47.4
2017-12-16T15:10:57.329Z,42.5
2017-12-16T15:20:57.585Z,44.1
2017-12-16T15:30:57.819Z,57.6
2017-12-16T15:40:56.521Z,66.7
2017-12-16T15:50:57.227Z,74.2
2017-12-16T16:00:57.249Z,81.0
2017-12-16T16:10:57.004Z,85.0
2017-12-16T16:20:57.212Z,85.3
2017-12-16T16:30:56.916Z,85.4
2017-12-16T16:40:56.607Z,82.2
2017-12-16T16:50:57.788Z,85.7
2017-12-16T17:00:56.893Z,84.9
2017-12-16T17:10:56.744Z,91.2
2017-12-16T17:20:56.564Z,86.7
2017-12-16T17:30:57.240Z,102.8
2017-12-16T17:40:57.089Z,129.3
2017-12-16T17:50:56.943Z,133.8
2017-12-16T18:00:56.767Z,152.0
2017-12-16T18:10:57.971Z,173.5
2017-12-16T18:20:57.305Z,197.8
2017-12-16T18:30:57.602Z,199.2
2017-12-16T18:40:58.054Z,197.1
2017-12-16T18:50:56.979Z,177.3
2017-12-16T19:00:56.693Z,180.3
2017-12-16T19:10:57.698Z,168.4
2017-12-16T19:20:57.461Z,165.7
2017-12-16T19:30:57.642Z,152.8
2017-12-16T19:40:57.491Z,146.3
2017-12-16T19:50:57.382Z,139.4
2017-12-16T20:00:57.108Z,127.7
2017-12-16T20:10:56.940Z,117.0
2017-12-16T20:20:56.931Z,106.6
2017-12-16T20:30:56.776Z,109.5
2017-12-16T20:40:57.531Z,115.1
2017-12-16T20:50:57.408Z,134.0
2017-12-16T21:00:57.130Z,157.0
2017-12-16T21:10:57.115Z,144.7
2017-12-16T21:20:56.967Z,148.5
2017-12-16T21:30:56.856Z,141.3
2017-12-16T21:40:57.117Z,143.1
2017-12-16T21:50:57.172Z,121.9
2017-12-16T22:00:57.026Z,130.1
2017-12-16T22:10:56.929Z,126.0
2017-12-16T22:20:56.796Z,130.5
2017-12-16T22:30:56.523Z,128.5
2017-12-16T22:40:57.251Z,117.5
2017-12-16T22:50:57.173Z,121.7
2017-12-16T23:00:57.115Z,124.8
2017-12-16T23:10:57.328Z,103.2
2017-12-16T23:20:57.649Z,104.3
2017-12-16T23:30:57.745Z,105.8
2017-12-16T23:40:58.274Z,111.0
2017-12-16T23:50:57.478Z,102.4
